createdAt,value
2018-07-22T00:02:05.961Z,55.20
2018-07-22T00:04:37.113Z,55.30
2018-07-22T00:07:07.747Z,55.20
2018-07-22T00:09:39.403Z,55.30
2018-07-22T00:12:10.204Z,55.40
2018-07-22T00:14:42.176Z,55.40
2018-07-22T00:17:13.715Z,55.40
2018-07-22T00:19:44.165Z,55.40
2018-07-22T00:22:15.094Z,55.50
2018-07-22T00:24:46.934Z,55.80
2018-07-22T00:27:18.459Z,55.80
2018-07-22T00:29:47.200Z,56.00
2018-07-22T00:32:17.167Z,56.10
2018-07-22T00:34:46.371Z,56.00
2018-07-22T00:37:15.620Z,56.60
2018-07-22T00:39:44.670Z,56.80
2018-07-22T00:42:14.568Z,57.10
2018-07-22T00:44:43.407Z,56.90
2018-07-22T00:47:13.125Z,56.90
2018-07-22T00:49:42.061Z,57.00
2018-07-22T00:52:12.020Z,57.00
2018-07-22T00:54:40.909Z,57.20
2018-07-22T00:57:10.854Z,57.30
2018-07-22T00:59:39.942Z,57.40
2018-07-22T01:02:08.758Z,57.50
2018-07-22T01:04:37.606Z,57.60
2018-07-22T01:07:07.005Z,57.50
2018-07-22T01:09:35.739Z,57.50
2018-07-22T01:12:04.729Z,57.50
2018-07-22T01:14:33.632Z,57.40
2018-07-22T01:19:31.534Z,57.30
2018-07-22T01:22:00.212Z,57.30
2018-07-22T01:24:28.948Z,57.30
2018-07-22T01:26:57.526Z,57.80
2018-07-22T01:29:26.539Z,57.40
2018-07-22T01:31:55.244Z,57.50
2018-07-22T01:34:23.929Z,57.60
2018-07-22T01:36:52.564Z,57.70
2018-07-22T01:39:21.414Z,57.80
2018-07-22T01:41:50.019Z,57.80
2018-07-22T01:44:18.813Z,57.80
2018-07-22T01:46:47.636Z,58.00
2018-07-22T01:49:16.363Z,57.90
2018-07-22T01:51:44.944Z,58.00
2018-07-22T01:54:13.707Z,58.10
2018-07-22T01:56:43.036Z,58.20
2018-07-22T01:59:12.710Z,58.20
2018-07-22T02:01:41.509Z,58.20
2018-07-22T02:04:10.072Z,58.10
2018-07-22T02:06:39.781Z,58.10
2018-07-22T02:09:10.033Z,58.20
2018-07-22T02:11:39.905Z,58.20
2018-07-22T02:14:09.135Z,58.30
2018-07-22T02:16:38.380Z,58.40
2018-07-22T02:19:07.384Z,58.30
2018-07-22T02:21:35.972Z,58.40
2018-07-22T02:24:04.636Z,58.40
2018-07-22T02:26:33.287Z,58.50
2018-07-22T02:29:02.007Z,58.50
2018-07-22T02:31:30.981Z,58.50
2018-07-22T02:33:59.662Z,58.70
2018-07-22T02:36:28.269Z,58.70
2018-07-22T02:41:25.253Z,58.80
2018-07-22T02:46:22.218Z,59.00
2018-07-22T02:48:50.933Z,59.00
2018-07-22T02:51:19.577Z,58.90
2018-07-22T02:53:48.111Z,59.00
2018-07-22T02:56:16.952Z,58.90
2018-07-22T02:58:45.486Z,58.90
2018-07-22T03:01:14.466Z,59.00
2018-07-22T03:03:43.160Z,59.10
2018-07-22T03:06:11.753Z,59.00
2018-07-22T03:08:40.618Z,58.90
2018-07-22T03:11:09.197Z,58.90
2018-07-22T03:13:37.976Z,58.90
2018-07-22T03:16:06.671Z,59.50
2018-07-22T03:18:35.993Z,58.90
2018-07-22T03:21:04.780Z,58.90
2018-07-22T03:23:33.410Z,58.90
2018-07-22T03:26:02.806Z,59.00
2018-07-22T03:28:31.396Z,59.40
2018-07-22T03:31:00.044Z,59.60
2018-07-22T03:33:28.913Z,59.80
2018-07-22T03:35:58.450Z,59.80
2018-07-22T03:38:27.474Z,60.40
2018-07-22T03:43:26.604Z,60.90
2018-07-22T03:45:56.432Z,61.20
2018-07-22T03:48:27.028Z,61.10
2018-07-22T03:50:57.410Z,61.30
2018-07-22T03:53:26.079Z,61.40
2018-07-22T03:55:55.821Z,61.60
2018-07-22T03:58:25.579Z,61.60
2018-07-22T04:00:54.304Z,61.80
2018-07-22T04:03:22.957Z,61.70
2018-07-22T04:05:51.724Z,61.80
2018-07-22T04:08:20.504Z,61.90
2018-07-22T04:10:49.200Z,62.10
2018-07-22T04:13:17.818Z,62.00
2018-07-22T04:15:46.535Z,62.00
2018-07-22T04:18:15.450Z,61.70
2018-07-22T04:20:44.208Z,61.50
2018-07-22T04:23:12.909Z,61.70
2018-07-22T04:25:41.924Z,61.30
2018-07-22T04:28:10.807Z,61.80
2018-07-22T04:30:40.139Z,62.00
2018-07-22T04:33:09.380Z,62.40
2018-07-22T04:35:38.384Z,62.40
2018-07-22T04:38:08.504Z,62.20
2018-07-22T04:40:38.138Z,62.90
2018-07-22T04:43:06.803Z,62.00
2018-07-22T04:45:35.917Z,62.10
2018-07-22T04:48:05.394Z,62.00
2018-07-22T04:50:34.156Z,63.40
2018-07-22T04:53:03.225Z,62.60
2018-07-22T04:55:32.036Z,62.30
2018-07-22T04:58:01.528Z,62.20
2018-07-22T05:00:31.111Z,62.10
2018-07-22T05:05:28.748Z,62.50
2018-07-22T05:07:57.441Z,62.60
2018-07-22T05:12:55.283Z,63.10
2018-07-22T05:15:23.930Z,63.10
2018-07-22T05:17:52.999Z,63.00
2018-07-22T05:20:21.691Z,63.20
2018-07-22T05:22:51.696Z,63.30
2018-07-22T05:25:20.670Z,63.30
2018-07-22T05:27:49.268Z,63.50
2018-07-22T05:30:18.264Z,63.50
2018-07-22T05:32:46.910Z,63.30
2018-07-22T05:35:15.584Z,64.60
2018-07-22T05:37:44.753Z,63.70
2018-07-22T05:40:13.524Z,63.80
2018-07-22T05:42:42.165Z,64.00
2018-07-22T05:45:10.979Z,63.80
2018-07-22T05:50:08.948Z,63.80
2018-07-22T05:52:37.700Z,63.50
2018-07-22T05:55:06.802Z,63.60
2018-07-22T05:57:35.782Z,63.70
2018-07-22T06:00:06.044Z,63.30
2018-07-22T06:02:35.102Z,63.40
2018-07-22T06:05:04.636Z,63.70
2018-07-22T06:07:33.859Z,63.30
2018-07-22T06:10:03.430Z,63.40
2018-07-22T06:12:32.445Z,63.70
2018-07-22T06:15:01.090Z,63.50
2018-07-22T06:17:30.567Z,63.70
2018-07-22T06:19:59.320Z,63.70
2018-07-22T06:22:28.336Z,63.50
2018-07-22T06:24:56.912Z,63.30
2018-07-22T06:27:26.204Z,63.10
2018-07-22T06:29:54.779Z,62.90
2018-07-22T06:32:23.504Z,62.50
2018-07-22T06:34:52.332Z,62.20
2018-07-22T06:37:21.463Z,62.00
2018-07-22T06:39:50.099Z,62.00
2018-07-22T06:42:18.811Z,61.80
2018-07-22T06:44:47.562Z,61.50
2018-07-22T06:47:16.387Z,61.30
2018-07-22T06:49:45.014Z,60.90
2018-07-22T06:52:14.095Z,60.70
2018-07-22T06:54:42.736Z,60.50
2018-07-22T06:57:11.521Z,60.30
2018-07-22T06:59:40.742Z,60.00
2018-07-22T07:02:09.506Z,60.00
2018-07-22T07:04:38.358Z,59.80
2018-07-22T07:07:07.517Z,59.50
2018-07-22T07:09:38.112Z,59.30
2018-07-22T07:12:07.181Z,59.00
2018-07-22T07:14:36.287Z,59.50
2018-07-22T07:17:05.315Z,59.20
2018-07-22T07:19:34.572Z,59.00
2018-07-22T07:22:03.355Z,58.90
2018-07-22T07:24:31.974Z,59.00
2018-07-22T07:27:01.633Z,58.90
2018-07-22T07:29:31.291Z,57.80
2018-07-22T07:32:00.373Z,58.30
2018-07-22T07:34:28.993Z,58.10
2018-07-22T07:36:58.130Z,57.70
2018-07-22T07:39:26.938Z,58.30
2018-07-22T07:41:55.561Z,57.70
2018-07-22T07:44:24.467Z,57.00
2018-07-22T07:46:53.196Z,57.40
2018-07-22T07:49:21.899Z,57.20
2018-07-22T07:51:50.569Z,56.90
2018-07-22T07:54:19.200Z,56.90
2018-07-22T07:56:48.384Z,56.40
2018-07-22T07:59:17.136Z,55.90
2018-07-22T08:01:45.760Z,55.50
2018-07-22T08:04:14.567Z,55.00
2018-07-22T08:06:43.186Z,54.80
2018-07-22T08:09:12.068Z,54.40
2018-07-22T08:11:41.030Z,54.20
2018-07-22T08:14:10.147Z,53.60
2018-07-22T08:16:38.875Z,53.60
2018-07-22T08:19:07.842Z,53.40
2018-07-22T08:21:36.599Z,53.00
2018-07-22T08:24:05.581Z,52.70
2018-07-22T08:26:34.475Z,52.50
2018-07-22T08:29:28.318Z,52.00
2018-07-22T08:31:57.846Z,51.80
2018-07-22T08:34:28.570Z,52.20
2018-07-22T08:39:28.405Z,51.40
2018-07-22T08:41:57.557Z,51.00
2018-07-22T08:44:26.301Z,50.70
2018-07-22T08:46:55.035Z,50.50
2018-07-22T08:49:23.704Z,50.50
2018-07-22T08:51:52.657Z,49.90
2018-07-22T08:54:21.301Z,49.70
2018-07-22T08:56:49.991Z,49.10
2018-07-22T08:59:18.768Z,49.30
2018-07-22T09:01:47.425Z,48.80
2018-07-22T09:04:16.060Z,48.70
2018-07-22T09:06:45.173Z,48.50
2018-07-22T09:09:13.786Z,48.20
2018-07-22T09:14:11.191Z,47.80
2018-07-22T09:16:40.458Z,47.70
2018-07-22T09:19:09.454Z,47.70
2018-07-22T09:21:39.102Z,47.80
2018-07-22T09:24:08.055Z,46.70
2018-07-22T09:26:37.081Z,46.90
2018-07-22T09:29:06.073Z,46.90
2018-07-22T09:31:34.832Z,47.10
2018-07-22T09:34:04.259Z,47.40
2018-07-22T09:36:33.443Z,47.10
2018-07-22T09:39:02.525Z,45.80
2018-07-22T09:41:31.217Z,46.30
2018-07-22T09:44:00.220Z,46.20
2018-07-22T09:46:29.013Z,46.10
2018-07-22T09:48:58.103Z,46.20
2018-07-22T09:51:27.557Z,46.20
2018-07-22T09:53:56.339Z,45.80
2018-07-22T09:56:25.055Z,44.40
2018-07-22T09:58:53.766Z,44.20
2018-07-22T10:01:22.580Z,44.50
2018-07-22T10:03:51.264Z,44.80
2018-07-22T10:06:20.340Z,43.80
2018-07-22T10:08:49.408Z,43.60
2018-07-22T10:11:18.310Z,43.20
2018-07-22T10:13:47.048Z,43.00
2018-07-22T10:16:15.886Z,42.80
2018-07-22T10:18:44.618Z,42.90
2018-07-22T10:21:13.281Z,42.40
2018-07-22T10:23:42.057Z,42.20
2018-07-22T10:26:10.752Z,41.70
2018-07-22T10:28:40.276Z,42.20
2018-07-22T10:31:08.929Z,42.00
2018-07-22T10:33:37.713Z,41.80
2018-07-22T10:36:06.641Z,40.80
2018-07-22T10:38:35.449Z,41.00
2018-07-22T10:41:04.314Z,40.90
2018-07-22T10:43:33.354Z,40.80
2018-07-22T10:46:02.135Z,41.10
2018-07-22T10:50:59.360Z,42.40
2018-07-22T10:53:28.137Z,43.00
2018-07-22T10:55:56.740Z,43.70
2018-07-22T10:58:25.491Z,44.70
2018-07-22T11:00:54.301Z,45.40
2018-07-22T11:03:24.669Z,45.90
2018-07-22T11:05:53.797Z,46.30
2018-07-22T11:08:22.452Z,47.00
2018-07-22T11:10:51.255Z,48.10
2018-07-22T11:13:19.955Z,48.90
2018-07-22T11:15:48.680Z,49.20
2018-07-22T11:20:46.046Z,50.20
2018-07-22T11:23:14.912Z,50.20
2018-07-22T11:25:43.618Z,50.70
2018-07-22T11:28:12.639Z,50.90
2018-07-22T11:30:42.358Z,51.00
2018-07-22T11:33:11.024Z,50.20
2018-07-22T11:35:40.071Z,49.50
2018-07-22T11:38:08.766Z,49.60
2018-07-22T11:40:38.031Z,50.20
2018-07-22T11:43:06.663Z,49.00
2018-07-22T11:45:35.455Z,47.70
2018-07-22T11:48:04.124Z,47.10
2018-07-22T11:50:33.225Z,46.80
2018-07-22T11:53:01.782Z,47.40
2018-07-22T11:55:30.610Z,48.80
2018-07-22T11:57:59.265Z,49.20
2018-07-22T12:00:30.420Z,49.00
2018-07-22T12:03:01.178Z,48.10
2018-07-22T12:05:30.203Z,49.10
2018-07-22T12:07:59.255Z,48.30
2018-07-22T12:13:04.260Z,46.10
2018-07-22T12:18:48.416Z,45.60
2018-07-22T12:21:17.051Z,46.80
2018-07-22T12:23:45.959Z,46.90
2018-07-22T12:26:14.720Z,47.10
2018-07-22T12:28:43.459Z,47.10
2018-07-22T12:31:12.937Z,47.20
2018-07-22T12:33:41.455Z,47.40
2018-07-22T12:36:10.312Z,48.10
2018-07-22T12:38:39.137Z,47.70
2018-07-22T12:41:07.871Z,48.30
2018-07-22T12:43:37.042Z,48.70
2018-07-22T12:46:06.140Z,49.00
2018-07-22T12:48:35.353Z,50.10
2018-07-22T12:51:04.341Z,51.00
2018-07-22T12:56:02.348Z,51.10
2018-07-22T12:58:31.014Z,50.80
2018-07-22T13:00:59.928Z,51.20
2018-07-22T13:03:28.527Z,51.30
2018-07-22T13:06:02.410Z,51.50
2018-07-22T13:08:31.209Z,51.50
2018-07-22T13:11:00.221Z,51.50
2018-07-22T13:13:28.962Z,51.50
2018-07-22T13:15:57.843Z,52.40
2018-07-22T13:18:26.674Z,53.00
2018-07-22T13:20:55.774Z,53.60
2018-07-22T13:23:25.406Z,54.10
2018-07-22T13:25:55.192Z,54.50
2018-07-22T13:28:25.847Z,54.80
2018-07-22T13:30:56.256Z,55.10
2018-07-22T13:33:27.388Z,55.50
2018-07-22T13:35:57.518Z,55.80
2018-07-22T13:38:28.234Z,56.00
2018-07-22T13:40:58.485Z,56.20
2018-07-22T13:43:28.754Z,56.30
2018-07-22T13:45:58.458Z,56.70
2018-07-22T13:48:28.157Z,57.00
